This is the latest recevied weather packets stored in our database for station/object IZ1BLA-10. If no packets are shown the sender has not sent any weather packets the latest 10 day(s).
| Time | Temp. | Humidity | Pressure | Rain* | Wind** | Luminosity | Snow |
|---|---|---|---|---|---|---|---|
| 1777713547 | 17.78° C | 47% | 1024.5 hPa | - | - | - | - |
| 1777712947 | 17.22° C | 50% | 1024.8 hPa | - | - | - | - |
| 1777712347 | 16.67° C | 48% | 1025 hPa | - | - | - | - |
| 1777711747 | 16.67° C | 49% | 1025 hPa | - | - | - | - |
| 1777711147 | 16.67° C | 48% | 1025.2 hPa | - | - | - | - |
| 1777710548 | 16.11° C | 49% | 1025.4 hPa | - | - | - | - |
| 1777709948 | 15.56° C | 49% | 1025.6 hPa | - | - | - | - |
| 1777709347 | 15° C | 50% | 1025.8 hPa | - | - | - | - |
| 1777708748 | 15° C | 50% | 1025.9 hPa | - | - | - | - |
| 1777708148 | 14.44° C | 50% | 1026.1 hPa | - | - | - | - |
| 1777707548 | 14.44° C | 50% | 1026.1 hPa | - | - | - | - |
| 1777706947 | 13.89° C | 50% | 1026.3 hPa | - | - | - | - |
| 1777706347 | 13.33° C | 51% | 1026.6 hPa | - | - | - | - |
| 1777705748 | 11.67° C | 54% | 1027.2 hPa | - | - | - | - |
| 1777705147 | 10.56° C | 57% | 1027.7 hPa | - | - | - | - |
| 1777704548 | 10° C | 58% | 1027.7 hPa | - | - | - | - |
| 1777703947 | 10.56° C | 59% | 1027.6 hPa | - | - | - | - |
| 1777703347 | 9.44° C | 66% | 1027.9 hPa | - | - | - | - |
| 1777702747 | 7.78° C | 71% | 1028.5 hPa | - | - | - | - |
| 1777702148 | 8.33° C | 71% | 1028.3 hPa | - | - | - | - |
| 1777701547 | 6.67° C | 76% | 1028.7 hPa | - | - | - | - |
| 1777700947 | 6.67° C | 77% | 1028.8 hPa | - | - | - | - |
| 1777700347 | 6.67° C | 78% | 1028.9 hPa | - | - | - | - |
| 1777699748 | 6.67° C | 77% | 1028.8 hPa | - | - | - | - |
| 1777699147 | 6.67° C | 79% | 1029 hPa | - | - | - | - |
* Rain since midnight (hover to see other rain measurements)
** Current wind speed in m/s (hover to see current wind gust speed)